Time;durP1;ratioP1;P1;durP2;ratioP2;P2;SDS_P1;SDS_P2;PMS_P1;PMS_P2;Temp;Humidity;BMP_temperature;BMP_pressure;BME280_temperature;BME280_humidity;BME280_pressure;Samples;Min_cycle;Max_cycle;Signal;HPM_P1;HPM_P2
2021/10/14 00:01:53;;;;;;;52.05;22.65;;;;;;;4.43;78.60;101349.94;1762843;79;25800;-66
2021/10/14 00:04:19;;;;;;;51.30;20.75;;;;;;;4.41;78.61;101344.64;1760036;80;27367;-67
2021/10/14 00:06:45;;;;;;;47.50;20.88;;;;;;;4.40;78.56;101351.29;1766424;80;25370;-66
2021/10/14 00:09:14;;;;;;;45.73;21.23;;;;;;;4.37;78.60;101346.88;1765589;80;26159;-66
2021/10/14 00:11:41;;;;;;;52.62;22.73;;;;;;;4.37;78.67;101349.98;1748977;80;25787;-67
2021/10/14 00:14:07;;;;;;;54.08;22.50;;;;;;;4.38;78.71;101359.70;1752738;80;25821;-67
2021/10/14 00:16:33;;;;;;;41.88;19.37;;;;;;;4.34;78.69;101351.33;1751998;80;27377;-66
2021/10/14 00:19:00;;;;;;;48.05;21.15;;;;;;;4.34;78.71;101355.31;1777268;79;25692;-66
2021/10/14 00:21:26;;;;;;;46.08;18.85;;;;;;;4.33;78.78;101351.77;1773934;79;26249;-68
2021/10/14 00:23:52;;;;;;;43.08;17.70;;;;;;;4.32;78.88;101337.19;1777732;79;26366;-68
2021/10/14 00:26:19;;;;;;;36.63;16.52;;;;;;;4.35;78.89;101337.16;1776933;79;25836;-68
2021/10/14 00:28:44;;;;;;;34.78;16.05;;;;;;;4.35;78.91;101329.20;1774559;79;27380;-68
2021/10/14 00:31:11;;;;;;;35.48;16.12;;;;;;;4.37;78.96;101330.08;1780496;79;26237;-68
2021/10/14 00:33:37;;;;;;;36.15;15.85;;;;;;;4.39;78.99;101328.30;1765949;79;26003;-66
2021/10/14 00:36:03;;;;;;;38.90;15.40;;;;;;;4.40;79.06;101328.73;1778477;79;26767;-67
2021/10/14 00:38:31;;;;;;;36.83;16.15;;;;;;;4.37;79.07;101315.48;1773314;79;25662;-66
2021/10/14 00:40:57;;;;;;;41.05;16.87;;;;;;;4.44;79.10;101330.02;1776009;79;27463;-67
2021/10/14 00:43:23;;;;;;;39.95;18.30;;;;;;;4.47;79.23;101330.45;1774271;79;26518;-67
2021/10/14 00:45:49;;;;;;;44.05;19.10;;;;;;;4.48;79.18;101331.76;1772128;79;26392;-66
2021/10/14 00:48:15;;;;;;;44.48;20.95;;;;;;;4.51;79.23;101333.51;1775712;79;25872;-66
2021/10/14 00:50:41;;;;;;;38.70;19.92;;;;;;;4.47;79.20;101326.46;1771076;79;25698;-67
2021/10/14 00:53:09;;;;;;;39.85;18.82;;;;;;;4.53;79.23;101329.07;1779432;79;27370;-67
2021/10/14 00:55:35;;;;;;;39.55;19.77;;;;;;;4.54;79.37;101334.37;1781053;79;26563;-66
2021/10/14 00:58:01;;;;;;;47.20;20.43;;;;;;;4.56;79.33;101327.72;1774824;79;25770;-67
2021/10/14 01:00:27;;;;;;;37.70;19.42;;;;;;;4.59;79.37;101329.02;1775337;79;25808;-67
2021/10/14 01:02:53;;;;;;;38.73;17.35;;;;;;;4.60;79.38;101328.13;1762675;79;25708;-66
2021/10/14 01:05:19;;;;;;;33.37;16.63;;;;;;;4.62;79.41;101329.00;1777075;79;27472;-66
2021/10/14 01:07:46;;;;;;;32.65;15.83;;;;;;;4.63;79.40;101327.22;1756140;80;25807;-67
2021/10/14 01:10:12;;;;;;;35.38;15.38;;;;;;;4.63;79.43;101314.83;1763010;80;25831;-66
2021/10/14 01:12:39;;;;;;;31.93;16.10;;;;;;;4.65;79.40;101324.11;1729095;81;26493;-67
2021/10/14 01:15:21;;;;;;;30.90;13.45;;;;;;;4.63;79.47;101310.84;1734293;81;25759;-66
2021/10/14 01:17:47;;;;;;;31.20;13.58;;;;;;;4.63;79.55;101301.55;1727884;81;27533;-66
2021/10/14 01:20:14;;;;;;;36.08;14.68;;;;;;;4.63;79.58;101292.26;1741934;80;25700;-66
2021/10/14 01:22:39;;;;;;;26.87;12.80;;;;;;;4.64;79.64;101291.37;1736664;80;25742;-66
2021/10/14 01:25:07;;;;;;;34.25;14.33;;;;;;;4.66;79.71;101289.58;1739556;80;26253;-66
2021/10/14 01:27:33;;;;;;;32.42;13.83;;;;;;;4.67;79.72;101285.15;1744039;80;25813;-66
2021/10/14 01:29:59;;;;;;;31.62;14.60;;;;;;;4.68;79.77;101286.46;1735985;81;27378;-67
2021/10/14 01:32:25;;;;;;;30.10;13.55;;;;;;;4.69;79.80;101292.20;1736666;80;26179;-66
2021/10/14 01:34:50;;;;;;;26.77;13.35;;;;;;;4.69;79.83;101282.03;1741301;80;25932;-68
2021/10/14 01:37:16;;;;;;;25.30;11.97;;;;;;;4.70;79.87;101286.00;1722131;81;25741;-68
2021/10/14 01:39:42;;;;;;;24.65;11.73;;;;;;;4.72;80.01;101289.52;1724714;81;25977;-66
2021/10/14 01:42:08;;;;;;;25.25;11.08;;;;;;;4.70;79.92;101283.34;1733044;81;27416;-66
2021/10/14 01:44:34;;;;;;;24.47;11.85;;;;;;;4.72;80.00;101283.33;1729717;81;25747;-67
2021/10/14 01:47:00;;;;;;;28.10;11.18;;;;;;;4.73;80.00;101286.42;1729617;81;25852;-66
2021/10/14 01:49:26;;;;;;;26.73;11.83;;;;;;;4.74;80.06;101289.06;1729037;81;26514;-67
2021/10/14 01:51:52;;;;;;;20.60;9.95;;;;;;;4.76;80.10;101287.27;1731597;81;40960;-67
2021/10/14 01:54:18;;;;;;;29.60;11.05;;;;;;;4.79;80.14;101287.24;1733150;81;28055;-67
2021/10/14 01:56:44;;;;;;;23.30;11.08;;;;;;;4.81;80.21;101284.13;1726423;81;26495;-67
2021/10/14 01:59:10;;;;;;;17.48;9.65;;;;;;;4.82;80.24;101283.23;1725096;81;25815;-66
2021/10/14 02:01:36;;;;;;;24.18;10.43;;;;;;;4.84;80.22;101288.53;1716471;81;25724;-66
2021/10/14 02:04:03;;;;;;;28.27;11.70;;;;;;;4.84;80.26;101276.12;1726574;81;26388;-67
2021/10/14 02:06:28;;;;;;;22.37;11.05;;;;;;;4.86;80.35;101280.98;1726543;81;27459;-67
2021/10/14 02:08:54;;;;;;;33.90;13.28;;;;;;;4.86;80.33;101280.98;1735938;80;25747;-67
2021/10/14 02:11:24;;;;;;;29.90;12.07;;;;;;;4.86;80.39;101280.98;1752040;80;25702;-66
2021/10/14 02:13:49;;;;;;;25.95;12.85;;;;;;;4.88;80.41;101285.83;1777566;79;25776;-67
2021/10/14 02:16:16;;;;;;;30.45;12.93;;;;;;;4.88;80.46;101284.50;1778122;79;25788;-67
2021/10/14 02:18:41;;;;;;;24.00;10.85;;;;;;;4.88;80.46;101289.81;1781324;79;27999;-67
2021/10/14 02:21:07;;;;;;;25.02;12.00;;;;;;;4.89;80.44;101291.58;1745031;81;26079;-67
2021/10/14 02:23:33;;;;;;;29.87;13.58;;;;;;;4.88;80.48;101285.83;1762162;80;25805;-67
2021/10/14 02:25:59;;;;;;;25.08;11.83;;;;;;;4.88;80.69;101280.52;1777051;79;26518;-67
2021/10/14 02:28:25;;;;;;;24.57;12.55;;;;;;;4.88;80.59;101290.26;1761600;80;25717;-67
2021/10/14 02:30:51;;;;;;;23.20;11.28;;;;;;;4.86;80.60;101283.64;1724658;81;27370;-67
2021/10/14 02:33:17;;;;;;;25.90;12.33;;;;;;;4.86;80.68;101294.26;1749526;80;25804;-67
2021/10/14 02:35:43;;;;;;;21.05;11.30;;;;;;;4.85;80.70;101287.63;1778461;79;25737;-67
2021/10/14 02:38:09;;;;;;;22.80;10.63;;;;;;;4.85;80.71;101288.52;1757931;80;26776;-67
2021/10/14 02:40:35;;;;;;;31.05;12.73;;;;;;;4.87;80.77;101303.11;1758712;80;25850;-67
2021/10/14 02:43:02;;;;;;;20.82;10.82;;;;;;;4.88;80.97;101299.55;1740389;81;27379;-67
2021/10/14 02:45:28;;;;;;;25.68;11.48;;;;;;;4.88;80.96;101303.09;1736751;81;26458;-67
2021/10/14 02:47:54;;;;;;;24.65;11.15;;;;;;;4.89;80.87;101293.34;1777812;79;25682;-67
2021/10/14 02:50:20;;;;;;;21.07;10.05;;;;;;;4.91;80.85;101290.68;1757267;80;25813;-67
2021/10/14 02:52:46;;;;;;;22.27;10.20;;;;;;;4.92;80.88;101295.98;1770741;80;26625;-67
2021/10/14 02:55:12;;;;;;;23.87;10.53;;;;;;;4.92;80.96;101292.44;1756863;80;27380;-67
2021/10/14 02:57:37;;;;;;;24.02;11.55;;;;;;;4.93;80.97;101293.75;1758981;80;25733;-67
2021/10/14 03:00:06;;;;;;;20.35;11.83;;;;;;;4.94;81.03;101295.96;1763247;80;25793;-66
2021/10/14 03:02:32;;;;;;;20.95;11.65;;;;;;;4.95;81.05;101299.05;1758418;80;25803;-67
2021/10/14 03:04:58;;;;;;;21.52;9.80;;;;;;;4.97;81.14;101290.62;1760686;80;25689;-67
2021/10/14 03:07:24;;;;;;;21.17;10.55;;;;;;;4.97;81.15;101293.27;1758847;80;27383;-67
2021/10/14 03:09:50;;;;;;;18.98;9.60;;;;;;;4.97;81.21;101289.29;1771476;79;26508;-67
2021/10/14 03:12:15;;;;;;;20.27;9.60;;;;;;;4.97;81.26;101287.52;1745272;81;25846;-67
2021/10/14 03:14:42;;;;;;;23.20;9.60;;;;;;;4.98;81.33;101293.26;1745947;80;26342;-67
2021/10/14 03:17:09;;;;;;;15.45;8.65;;;;;;;4.99;81.37;101291.48;1777783;79;25823;-67
2021/10/14 03:19:36;;;;;;;18.12;8.93;;;;;;;5.00;81.37;101287.93;1777874;80;27439;-66
2021/10/14 03:22:03;;;;;;;18.42;10.28;;;;;;;5.01;81.41;101287.03;1777667;79;25770;-67
2021/10/14 03:24:30;;;;;;;19.30;9.48;;;;;;;5.00;81.41;101282.61;1777807;79;26018;-67
2021/10/14 03:26:55;;;;;;;21.27;9.50;;;;;;;5.02;81.39;101288.80;1778093;79;26462;-67
2021/10/14 03:29:21;;;;;;;24.23;10.20;;;;;;;5.03;81.40;101278.60;1778259;79;25805;-67
2021/10/14 03:31:47;;;;;;;19.73;9.40;;;;;;;5.03;81.42;101283.47;1766356;80;27390;-67
2021/10/14 03:34:13;;;;;;;19.82;9.25;;;;;;;5.03;81.42;101278.16;1759977;80;25762;-66
2021/10/14 03:36:39;;;;;;;23.02;9.90;;;;;;;5.03;81.42;101282.58;1777622;79;25737;-66
2021/10/14 03:39:06;;;;;;;16.95;8.78;;;;;;;5.01;81.42;101278.62;1724694;81;25872;-66
2021/10/14 03:41:32;;;;;;;17.35;9.60;;;;;;;5.01;81.45;101272.42;1774215;80;25646;-67
2021/10/14 03:43:57;;;;;;;23.55;9.10;;;;;;;5.01;81.48;101275.08;1745095;80;27414;-67
2021/10/14 03:46:23;;;;;;;19.65;9.25;;;;;;;5.00;81.51;101275.98;1777775;79;25787;-67
2021/10/14 03:48:49;;;;;;;17.07;9.50;;;;;;;5.01;81.54;101274.63;1725266;81;25881;-67
2021/10/14 03:51:15;;;;;;;20.68;8.58;;;;;;;5.01;81.54;101277.28;1731904;81;25741;-67
2021/10/14 03:53:41;;;;;;;18.80;9.85;;;;;;;5.01;81.77;101270.64;1783331;79;25694;-67
2021/10/14 04:03:29;;;;;;;20.32;9.93;;;;;;;5.01;81.62;101279.06;1736698;80;25808;-67
2021/10/14 04:05:54;;;;;;;16.77;9.15;;;;;;;5.02;81.63;101280.83;1777494;79;26336;-67
2021/10/14 04:08:20;;;;;;;29.40;10.15;;;;;;;5.03;81.64;101274.61;1732099;80;25900;-66
2021/10/14 04:10:46;;;;;;;19.67;9.63;;;;;;;5.04;81.66;101275.92;1728409;81;27417;-67
2021/10/14 04:13:12;;;;;;;22.60;9.80;;;;;;;5.06;81.70;101279.89;1776605;79;25709;-67
2021/10/14 04:15:38;;;;;;;20.08;9.88;;;;;;;5.07;81.66;101275.02;1776446;80;25845;-66
2021/10/14 04:18:03;;;;;;;22.13;10.08;;;;;;;5.07;81.64;101279.00;1776500;79;26468;-66
2021/10/14 04:20:29;;;;;;;22.48;9.60;;;;;;;5.08;81.64;101276.33;1757388;80;25776;-66
2021/10/14 04:22:55;;;;;;;18.70;9.83;;;;;;;5.10;81.69;101280.30;1758010;80;27339;-67
2021/10/14 04:25:21;;;;;;;23.42;10.50;;;;;;;5.10;81.69;101289.59;1756002;80;26429;-67
2021/10/14 04:27:47;;;;;;;20.23;10.43;;;;;;;5.10;81.71;101282.95;1776509;79;25750;-66
2021/10/14 04:30:13;;;;;;;24.00;10.13;;;;;;;5.08;81.80;101275.45;1777701;79;26366;-67
2021/10/14 04:32:39;;;;;;;20.90;11.03;;;;;;;5.09;81.75;101282.52;1776176;79;25806;-67
2021/10/14 04:35:06;;;;;;;21.45;10.90;;;;;;;5.06;81.74;101278.56;1779678;79;27544;-67
2021/10/14 04:37:33;;;;;;;21.85;11.05;;;;;;;5.06;81.78;101279.89;1776840;79;26192;-67
2021/10/14 04:39:59;;;;;;;30.77;12.07;;;;;;;5.06;81.77;101274.13;1777151;79;26414;-67
2021/10/14 04:42:24;;;;;;;24.47;12.23;;;;;;;5.07;81.79;101278.55;1776478;79;25728;-67
2021/10/14 04:44:50;;;;;;;30.85;13.03;;;;;;;5.07;81.78;101273.69;1780024;79;25964;-67
2021/10/14 04:47:20;;;;;;;29.15;13.83;;;;;;;5.06;81.79;101275.47;1786700;79;27380;-67
2021/10/14 04:49:45;;;;;;;25.48;13.30;;;;;;;5.03;81.77;101270.19;1778739;79;25810;-67
2021/10/14 04:52:12;;;;;;;27.48;12.65;;;;;;;5.03;81.80;101271.51;1769891;79;25789;-66
2021/10/14 04:54:38;;;;;;;30.60;12.85;;;;;;;5.04;81.83;101269.73;1768120;79;25818;-66
2021/10/14 04:57:04;;;;;;;23.18;11.97;;;;;;;5.03;81.82;101261.33;1777013;79;25785;-66
2021/10/14 04:59:30;;;;;;;23.98;12.58;;;;;;;5.04;81.85;101266.63;1769465;79;28093;-67
2021/10/14 05:01:55;;;;;;;27.27;12.68;;;;;;;5.04;81.85;101269.28;1783129;79;25947;-67
2021/10/14 05:04:21;;;;;;;27.87;11.75;;;;;;;5.04;81.89;101272.39;1777170;79;25696;-67
2021/10/14 05:06:47;;;;;;;24.65;12.35;;;;;;;5.05;81.90;101278.14;1776670;79;25769;-67
2021/10/14 05:09:13;;;;;;;21.73;11.83;;;;;;;5.04;81.94;101275.05;1776711;79;25760;-66
2021/10/14 05:11:39;;;;;;;25.75;12.18;;;;;;;5.05;81.95;101271.49;1778740;79;27385;-67
2021/10/14 05:14:05;;;;;;;24.87;12.75;;;;;;;5.04;81.93;101265.30;1774733;79;26434;-67
2021/10/14 05:16:32;;;;;;;27.20;12.63;;;;;;;5.06;81.99;101263.95;1774803;79;25810;-67
2021/10/14 05:19:00;;;;;;;28.83;14.18;;;;;;;5.08;81.98;101264.81;1755266;80;25760;-67
2021/10/14 05:21:27;;;;;;;24.72;12.63;;;;;;;5.05;82.06;101252.45;1775086;79;25745;-67
2021/10/14 05:23:53;;;;;;;29.67;14.13;;;;;;;5.10;82.01;101255.05;1774926;79;28415;-66
2021/10/14 05:26:19;;;;;;;26.00;13.20;;;;;;;5.12;82.03;101259.45;1779833;79;25934;-67
2021/10/14 05:28:45;;;;;;;25.52;13.45;;;;;;;5.13;82.03;101264.31;1753678;80;25878;-66
2021/10/14 05:31:11;;;;;;;27.50;13.28;;;;;;;5.13;82.08;101260.33;1754767;80;25829;-67
2021/10/14 05:33:37;;;;;;;27.60;13.90;;;;;;;5.15;82.09;101261.20;1754049;80;25833;-67
2021/10/14 05:36:03;;;;;;;29.77;12.50;;;;;;;5.18;82.11;101265.15;1781784;78;28456;-67
2021/10/14 05:38:30;;;;;;;26.37;12.47;;;;;;;5.18;82.18;101265.15;1752436;80;25924;-68
2021/10/14 05:40:56;;;;;;;24.80;13.22;;;;;;;5.18;82.09;101258.50;1775955;79;25822;-67
2021/10/14 05:43:21;;;;;;;26.77;12.90;;;;;;;5.21;82.12;101253.12;1773254;79;26500;-67
2021/10/14 05:45:47;;;;;;;23.75;12.63;;;;;;;5.21;82.13;101254.45;1775055;79;25854;-67
2021/10/14 05:48:13;;;;;;;31.70;13.08;;;;;;;5.22;82.17;101250.45;1772873;79;27443;-67
2021/10/14 05:50:39;;;;;;;27.10;13.00;;;;;;;5.25;82.22;101252.63;1777294;79;25681;-66
2021/10/14 05:53:05;;;;;;;38.23;14.33;;;;;;;5.26;82.21;101251.73;1774712;79;25537;-67
2021/10/14 05:55:31;;;;;;;27.98;12.78;;;;;;;5.28;82.25;101261.45;1768773;79;26066;-67
2021/10/14 05:57:56;;;;;;;28.20;13.35;;;;;;;5.30;82.23;101255.67;1763449;80;25961;-69
2021/10/14 06:00:22;;;;;;;27.07;13.58;;;;;;;5.31;82.23;101256.10;1763524;81;27946;-67
2021/10/14 06:02:48;;;;;;;27.25;13.40;;;;;;;5.33;82.25;101254.30;1762990;80;26026;-67
2021/10/14 06:05:14;;;;;;;30.92;13.45;;;;;;;5.36;82.26;101264.02;1763584;80;25724;-67
2021/10/14 06:07:40;;;;;;;26.87;13.20;;;;;;;5.37;82.28;101264.45;1763038;81;25706;-66
2021/10/14 06:10:07;;;;;;;24.30;12.28;;;;;;;5.39;82.31;101268.84;1763807;81;25624;-66
2021/10/14 06:12:33;;;;;;;27.80;12.43;;;;;;;5.39;82.30;101264.86;1762923;81;27474;-67
2021/10/14 06:14:59;;;;;;;23.92;12.40;;;;;;;5.41;82.33;101261.73;1761632;81;25720;-66
2021/10/14 06:17:24;;;;;;;24.63;13.05;;;;;;;5.44;82.34;101271.00;1761108;81;25687;-65
2021/10/14 06:19:50;;;;;;;30.12;13.22;;;;;;;5.45;82.35;101264.78;1761780;81;26349;-67
2021/10/14 06:22:16;;;;;;;25.92;12.88;;;;;;;5.48;82.43;101267.86;1761548;80;26004;-66
2021/10/14 06:24:42;;;;;;;31.27;12.50;;;;;;;5.50;82.40;101268.27;1761897;79;27365;-67
2021/10/14 06:27:08;;;;;;;23.92;12.75;;;;;;;5.52;82.49;101271.78;1776708;79;25837;-65
2021/10/14 06:29:34;;;;;;;25.60;13.28;;;;;;;5.55;82.44;101270.87;1777381;79;25742;-65
2021/10/14 06:32:00;;;;;;;26.85;13.25;;;;;;;5.57;82.48;101264.20;1776314;79;25781;-64
2021/10/14 06:34:25;;;;;;;23.02;11.78;;;;;;;5.58;82.51;101267.29;1777129;79;25780;-67
2021/10/14 06:36:51;;;;;;;29.27;12.93;;;;;;;5.61;82.53;101265.92;1776674;79;27960;-67
2021/10/14 06:39:18;;;;;;;24.32;12.95;;;;;;;5.64;82.52;101262.77;1775285;79;26577;-65
2021/10/14 06:41:44;;;;;;;22.82;12.43;;;;;;;5.68;82.55;101267.14;1768928;79;25754;-67
2021/10/14 06:44:10;;;;;;;26.60;12.93;;;;;;;5.69;82.56;101266.25;1778511;80;25793;-67
2021/10/14 06:46:39;;;;;;;27.25;13.08;;;;;;;5.71;82.63;101267.56;1787712;79;26554;-67
2021/10/14 06:49:05;;;;;;;24.23;13.38;;;;;;;5.76;82.65;101267.05;1779634;79;27417;-66
2021/10/14 06:51:32;;;;;;;28.67;12.13;;;;;;;5.79;82.61;101267.00;1770276;79;25888;-66
2021/10/14 06:53:58;;;;;;;27.32;12.37;;;;;;;5.83;82.63;101266.06;1774069;79;25804;-66
2021/10/14 06:56:25;;;;;;;28.23;12.85;;;;;;;5.85;82.64;101259.81;1777540;79;25726;-67
2021/10/14 06:58:51;;;;;;;21.97;11.12;;;;;;;5.90;82.67;101261.11;1775165;79;25733;-67
2021/10/14 07:01:17;;;;;;;23.90;12.40;;;;;;;5.92;82.64;101265.97;1777487;79;27447;-67
2021/10/14 07:03:42;;;;;;;23.80;12.75;;;;;;;5.97;82.72;101264.56;1773626;79;26637;-69
2021/10/14 07:06:08;;;;;;;22.48;12.47;;;;;;;6.01;82.69;101256.97;1779138;79;25742;-67
2021/10/14 07:08:34;;;;;;;25.52;12.95;;;;;;;6.04;82.70;101267.11;1765222;80;25771;-68
2021/10/14 07:11:00;;;;;;;30.43;13.80;;;;;;;6.08;82.72;101267.50;1770783;80;25705;-69
2021/10/14 07:13:26;;;;;;;27.55;13.38;;;;;;;6.10;82.72;101261.70;1746424;80;27539;-67
2021/10/14 07:15:52;;;;;;;29.30;13.78;;;;;;;6.14;82.70;101263.41;1767293;80;27234;-66
2021/10/14 07:18:17;;;;;;;33.67;14.38;;;;;;;6.18;82.75;101262.91;1755896;80;26501;-67
2021/10/14 07:20:43;;;;;;;29.18;13.43;;;;;;;6.22;82.78;101267.73;1763377;80;25750;-66
2021/10/14 07:23:12;;;;;;;27.87;14.30;;;;;;;6.25;82.75;101264.58;1758804;80;25286;-67
2021/10/14 07:25:39;;;;;;;23.20;12.58;;;;;;;6.29;82.77;101268.95;1756814;80;27950;-69
2021/10/14 07:28:07;;;;;;;22.98;13.45;;;;;;;6.32;82.79;101273.34;1751122;80;26305;-68
2021/10/14 07:30:35;;;;;;;29.67;14.38;;;;;;;6.35;82.77;101269.30;1751059;81;26239;-69
2021/10/14 07:33:04;;;;;;;34.75;13.18;;;;;;;6.38;82.82;101266.14;1748450;80;25954;-67
2021/10/14 07:35:36;;;;;;;32.03;13.55;;;;;;;6.42;82.81;101258.98;1749053;80;25771;-66
2021/10/14 07:38:03;;;;;;;28.62;13.48;;;;;;;6.46;82.85;101256.25;1749521;80;27414;-66
2021/10/14 07:40:32;;;;;;;27.98;13.65;;;;;;;6.53;82.86;101258.80;1755162;80;25841;-66
2021/10/14 07:42:58;;;;;;;36.85;15.60;;;;;;;6.56;82.84;101256.97;1752823;80;25766;-66
2021/10/14 07:45:24;;;;;;;29.55;14.68;;;;;;;6.61;82.89;101258.22;1775323;79;26445;-67
2021/10/14 07:47:49;;;;;;;29.45;13.72;;;;;;;6.64;83.30;101255.50;1773252;80;25739;-66
2021/10/14 07:50:15;;;;;;;23.12;12.93;;;;;;;6.66;82.91;101258.56;1770828;79;27468;-70
2021/10/14 07:52:42;;;;;;;29.18;14.05;;;;;;;6.70;82.90;101259.39;1772825;79;26306;-67
2021/10/14 07:55:10;;;;;;;29.63;13.60;;;;;;;6.72;82.91;101255.80;1772586;79;25713;-66
2021/10/14 07:57:37;;;;;;;28.95;14.70;;;;;;;6.75;82.91;101258.41;1767078;79;25746;-67
2021/10/14 08:00:07;;;;;;;27.17;14.55;;;;;;;6.79;82.91;101260.11;1762983;80;25919;-67
2021/10/14 08:02:33;;;;;;;26.35;15.93;;;;;;;6.82;82.90;101262.72;1737633;80;27311;-67
2021/10/14 08:04:58;;;;;;;30.92;15.38;;;;;;;6.84;82.89;101264.91;1748686;81;25836;-67
2021/10/14 08:07:24;;;;;;;30.82;15.20;;;;;;;6.86;83.00;101263.99;1753444;81;25848;-66
2021/10/14 08:09:50;;;;;;;27.52;13.95;;;;;;;6.85;82.91;101256.45;1748728;80;26339;-67
2021/10/14 08:12:16;;;;;;;33.45;15.38;;;;;;;6.88;82.97;101259.52;1749503;80;25760;-66
2021/10/14 08:14:42;;;;;;;30.75;15.90;;;;;;;6.94;82.98;101263.41;1744105;81;27449;-65
2021/10/14 08:17:08;;;;;;;25.00;15.77;;;;;;;7.00;83.03;101252.62;1745513;81;26489;-67
2021/10/14 08:19:33;;;;;;;26.37;15.90;;;;;;;7.05;82.97;101252.09;1729459;81;26439;-67
2021/10/14 08:21:59;;;;;;;30.08;16.27;;;;;;;7.08;82.95;101249.36;1728679;81;25813;-66
2021/10/14 08:24:25;;;;;;;31.20;17.07;;;;;;;7.10;82.94;101244.42;1719370;81;25782;-67
2021/10/14 08:26:51;;;;;;;25.25;14.83;;;;;;;7.13;82.95;101246.15;1729301;81;27389;-67
2021/10/14 08:29:17;;;;;;;29.12;17.17;;;;;;;7.23;83.07;101248.18;1729176;81;25794;-65
2021/10/14 08:31:44;;;;;;;31.07;17.15;;;;;;;7.30;83.05;101245.81;1737417;81;25779;-65
2021/10/14 08:34:10;;;;;;;29.18;16.57;;;;;;;7.31;83.00;101241.78;1727571;81;25871;-67
2021/10/14 08:36:36;;;;;;;34.27;17.10;;;;;;;7.37;83.01;101245.66;1720106;81;25954;-67
2021/10/14 08:39:03;;;;;;;33.05;17.50;;;;;;;7.39;82.98;101250.50;1729454;81;27342;-65
2021/10/14 08:41:28;;;;;;;29.27;15.70;;;;;;;7.43;83.03;101250.87;1734414;81;26452;-67
2021/10/14 08:43:57;;;;;;;33.58;17.73;;;;;;;7.49;83.03;101245.41;1726687;81;26064;-67
2021/10/14 08:46:23;;;;;;;36.13;18.12;;;;;;;7.53;83.01;101252.01;1728903;81;26429;-67
2021/10/14 08:48:49;;;;;;;34.30;17.70;;;;;;;7.57;83.02;101247.03;1736920;81;25516;-68
2021/10/14 08:51:15;;;;;;;30.57;17.05;;;;;;;7.59;83.00;101239.42;1730492;81;27393;-68
2021/10/14 08:53:41;;;;;;;27.73;16.42;;;;;;;7.60;82.98;101237.63;1738444;81;25966;-67
2021/10/14 08:56:07;;;;;;;28.17;15.98;;;;;;;7.61;82.99;101239.38;1710398;82;25858;-68
2021/10/14 08:58:33;;;;;;;33.13;16.87;;;;;;;7.68;83.04;101233.00;1736759;81;26531;-68
2021/10/14 09:01:12;;;;;;;27.27;15.83;;;;;;;7.75;83.08;101230.63;1729235;81;25804;-67
2021/10/14 09:03:53;;;;;;;29.75;16.20;;;;;;;7.79;83.00;101226.97;1736900;81;27490;-66
2021/10/14 09:06:16;;;;;;;32.48;16.32;;;;;;;7.85;83.01;101226.80;1728427;81;25753;-66
2021/10/14 09:08:52;;;;;;;28.57;16.32;;;;;;;7.88;83.02;101232.52;1728831;81;25825;-66
2021/10/14 09:11:28;;;;;;;36.80;16.02;;;;;;;7.89;83.00;101228.48;1725647;81;25848;-67
2021/10/14 09:13:59;;;;;;;25.05;14.93;;;;;;;7.92;83.01;101231.54;1727570;81;26010;-67
2021/10/14 09:16:31;;;;;;;31.85;15.72;;;;;;;7.93;83.00;101225.28;1724219;81;27652;-67
2021/10/14 09:19:19;;;;;;;29.87;15.60;;;;;;;7.96;83.03;101229.22;1729591;81;25818;-68
2021/10/14 09:21:59;;;;;;;31.27;16.02;;;;;;;7.98;82.98;101227.39;1707584;81;25638;-66
2021/10/14 09:24:37;;;;;;;33.40;16.75;;;;;;;7.95;82.96;101220.33;1721059;81;26371;-66
2021/10/14 09:27:14;;;;;;;30.17;15.08;;;;;;;7.98;82.95;101228.73;1729374;81;26166;-68
2021/10/14 09:29:41;;;;;;;33.85;17.92;;;;;;;7.97;82.92;101222.51;1728293;81;27337;-66
2021/10/14 09:32:15;;;;;;;28.32;16.40;;;;;;;7.96;82.89;101223.87;1739569;81;25741;-66
2021/10/14 09:34:43;;;;;;;29.55;17.90;;;;;;;7.98;82.93;101220.27;1728833;81;25670;-66
2021/10/14 09:37:21;;;;;;;33.05;18.05;;;;;;;8.02;82.95;101220.61;1729841;81;26227;-66
2021/10/14 09:40:04;;;;;;;27.80;16.57;;;;;;;8.07;82.93;101213.83;1735816;81;25787;-67
2021/10/14 09:43:02;;;;;;;32.15;18.12;;;;;;;8.08;82.93;101203.11;1720728;81;27481;-66
2021/10/14 09:45:33;;;;;;;29.67;16.85;;;;;;;8.14;83.00;101205.63;1721190;81;25314;-67
2021/10/14 09:48:11;;;;;;;29.57;16.12;;;;;;;8.19;82.93;101199.30;1731232;81;25872;-66
2021/10/14 09:50:46;;;;;;;23.47;14.50;;;;;;;8.20;82.96;101195.26;1728671;81;25800;-67
2021/10/14 09:53:15;;;;;;;29.67;16.07;;;;;;;8.17;82.93;101185.98;1725322;81;25776;-67
2021/10/14 09:55:43;;;;;;;27.35;16.62;;;;;;;8.28;83.00;101186.59;1729410;81;27380;-66
2021/10/14 09:58:10;;;;;;;31.05;15.70;;;;;;;8.34;82.99;101181.59;1738172;81;25858;-69
2021/10/14 10:00:37;;;;;;;29.12;14.58;;;;;;;8.39;83.04;101186.36;1739404;81;25646;-68
2021/10/14 10:03:06;;;;;;;31.30;14.83;;;;;;;8.46;83.05;101186.62;1724676;81;25613;-66
2021/10/14 10:05:32;;;;;;;23.12;13.80;;;;;;;8.53;83.04;101177.98;1721054;81;25512;-68
2021/10/14 10:08:08;;;;;;;35.38;13.40;;;;;;;8.58;82.98;101177.41;1722780;81;27415;-74
2021/10/14 10:10:37;;;;;;;26.90;14.45;;;;;;;8.64;83.08;101175.45;1725961;81;25682;-73
2021/10/14 10:13:04;;;;;;;21.90;13.60;;;;;;;8.70;83.04;101170.39;1724468;81;32067;-65
2021/10/14 10:15:46;;;;;;;22.90;13.20;;;;;;;8.72;82.98;101166.77;1741157;80;25802;-67
2021/10/14 10:18:30;;;;;;;;;;;;;;;8.72;82.94;101165.42;1741373;80;25718;-69
2021/10/14 10:21:01;;;;;;;17.45;10.98;;;;;;;8.67;82.89;101167.80;1748629;80;27398;-68
2021/10/14 10:23:47;;;;;;;;;;;;;;;8.62;82.94;101172.40;1756570;80;25761;-68
2021/10/14 10:26:39;;;;;;;23.10;12.30;;;;;;;8.59;82.90;101161.79;1773409;79;26444;-68
2021/10/14 10:29:22;;;;;;;21.23;12.68;;;;;;;8.54;82.94;101156.57;1771574;79;26589;-68
2021/10/14 10:31:56;;;;;;;17.73;11.20;;;;;;;8.57;83.06;101144.92;1773586;79;25738;-67
2021/10/14 10:34:55;;;;;;;17.95;11.73;;;;;;;8.60;83.02;101150.19;1773247;79;27454;-70
2021/10/14 10:37:32;;;;;;;19.12;10.70;;;;;;;8.59;82.99;101147.09;1766497;79;25901;-69
2021/10/14 10:40:12;;;;;;;21.93;12.03;;;;;;;8.58;83.03;101152.02;1778754;79;25766;-67
2021/10/14 10:42:57;;;;;;;17.45;10.93;;;;;;;8.57;83.00;101151.60;1771277;80;25866;-67
2021/10/14 10:45:43;;;;;;;15.53;9.13;;;;;;;8.56;83.07;101145.38;1753884;79;25704;-68
2021/10/14 10:48:10;;;;;;;18.42;10.45;;;;;;;8.55;83.17;101144.97;1764980;80;27481;-69
2021/10/14 10:50:43;;;;;;;20.80;10.90;;;;;;;8.56;83.19;101143.17;1769034;80;25974;-69
2021/10/14 10:53:22;;;;;;;19.07;10.55;;;;;;;8.57;83.20;101137.78;1767456;80;25967;-69
2021/10/14 10:56:16;;;;;;;16.48;10.58;;;;;;;8.58;83.21;101127.97;1772243;79;26033;-71
2021/10/14 10:58:48;;;;;;;17.27;10.45;;;;;;;8.61;83.23;101123.42;1723342;81;26498;-73
2021/10/14 11:01:19;;;;;;;17.23;11.20;;;;;;;8.65;83.25;101117.08;1726347;81;28095;-68
2021/10/14 11:04:04;;;;;;;18.07;10.65;;;;;;;8.66;83.37;101113.48;1727660;81;25966;-69
2021/10/14 11:06:33;;;;;;;24.98;12.68;;;;;;;8.69;83.35;101118.74;1716779;81;25818;-68
2021/10/14 11:09:05;;;;;;;22.42;13.68;;;;;;;8.72;83.40;101113.31;1719004;81;25835;-68
2021/10/14 11:11:35;;;;;;;22.20;13.68;;;;;;;8.75;83.38;101108.34;1747127;80;25803;-69
2021/10/14 11:14:02;;;;;;;26.25;14.85;;;;;;;8.77;83.34;101111.38;1709167;82;27123;-66
2021/10/14 11:16:29;;;;;;;27.60;16.85;;;;;;;8.81;83.36;101109.96;1712784;82;25758;-66
2021/10/14 11:18:56;;;;;;;26.73;16.12;;;;;;;8.84;83.39;101121.90;1715877;82;25668;-66
2021/10/14 11:21:27;;;;;;;20.15;14.95;;;;;;;8.86;83.67;101116.05;1715888;82;25707;-66
2021/10/14 11:23:56;;;;;;;30.60;15.85;;;;;;;8.86;83.38;101116.93;1691744;82;25754;-66
2021/10/14 11:26:42;;;;;;;22.90;15.35;;;;;;;8.88;83.41;101117.76;1735932;81;27372;-66
2021/10/14 11:29:13;;;;;;;26.07;16.52;;;;;;;8.91;83.46;101123.02;1722218;81;26398;-66
2021/10/14 11:31:46;;;;;;;23.30;15.10;;;;;;;8.94;83.46;101124.73;1760188;80;26046;-66